Aviation Digital Data Service (ADDS)

Output produced by METARs form (0345 UTC 23 November 2017)
found at http://www.aviationweather.gov/adds/metars/
 
NZAA 230330Z AUTO 22013KT 9999 NCD 22/16 Q1026 NOSIG
TAF NZAA 222306Z 2300/2400 22010KT 9999 SCT025 
     BECMG 2307/2309 VRB02KT
       
NZCH 230330Z AUTO 06012KT 9999 FEW014/// 18/13 Q1026 NOSIG
TAF NZCH 222306Z 2300/2400 06015KT 9999 FEW012 
     BECMG 2308/2310 06005KT BKN007 
     BECMG 2322/2400 06015KT BKN012
       
TAF NZQN 221711Z 2218/2318 VRB02KT 9999 SKC 
     BECMG 2301/2303 18015KT 
     BECMG 2309/2311 18005KT
       
NZWN 230330Z AUTO 21010KT 9999 NCD 17/13 Q1026 NOSIG
TAF NZWN 222306Z 2300/2400 18010KT CAVOK 
     BECMG 2307/2309 05005KT 
     BECMG 2322/2400 05015KT
       
NZWP 222200Z 27003KT 200V310 30KM SCT026 BKN035 20/12 Q1027 NOSIG